sensor_id;sensor_type;location;lat;lon;timestamp;pressure;altitude;pressure_sealevel;temperature;humidity
81545;BME280;70990;50.618;7.346;2024-02-28T00:01:24;98478.03;;;3.42;100.00
81545;BME280;70990;50.618;7.346;2024-02-28T00:03:50;98476.38;;;3.37;100.00
81545;BME280;70990;50.618;7.346;2024-02-28T00:06:17;98488.31;;;3.48;100.00
81545;BME280;70990;50.618;7.346;2024-02-28T00:08:44;98477.56;;;3.20;100.00
81545;BME280;70990;50.618;7.346;2024-02-28T00:11:10;98479.44;;;3.16;100.00
81545;BME280;70990;50.618;7.346;2024-02-28T00:13:37;98476.56;;;3.09;100.00
81545;BME280;70990;50.618;7.346;2024-02-28T00:16:03;98483.72;;;2.98;100.00
81545;BME280;70990;50.618;7.346;2024-02-28T00:18:30;98489.88;;;3.11;100.00
81545;BME280;70990;50.618;7.346;2024-02-28T00:20:57;98490.09;;;3.21;100.00
81545;BME280;70990;50.618;7.346;2024-02-28T00:23:23;98476.72;;;3.16;100.00
81545;BME280;70990;50.618;7.346;2024-02-28T00:25:49;98494.84;;;3.24;100.00
81545;BME280;70990;50.618;7.346;2024-02-28T00:28:16;98499.25;;;3.13;100.00
81545;BME280;70990;50.618;7.346;2024-02-28T00:30:42;98501.03;;;2.87;100.00
81545;BME280;70990;50.618;7.346;2024-02-28T00:33:09;98490.13;;;2.71;100.00
81545;BME280;70990;50.618;7.346;2024-02-28T00:35:35;98482.28;;;2.85;100.00
81545;BME280;70990;50.618;7.346;2024-02-28T00:38:06;98491.63;;;3.03;100.00
81545;BME280;70990;50.618;7.346;2024-02-28T00:40:33;98492.50;;;3.07;100.00
81545;BME280;70990;50.618;7.346;2024-02-28T00:42:59;98490.66;;;3.11;100.00
81545;BME280;70990;50.618;7.346;2024-02-28T00:45:26;98494.41;;;3.22;100.00
81545;BME280;70990;50.618;7.346;2024-02-28T00:47:52;98485.75;;;3.20;100.00
81545;BME280;70990;50.618;7.346;2024-02-28T00:50:19;98475.84;;;3.12;100.00
81545;BME280;70990;50.618;7.346;2024-02-28T00:52:45;98488.94;;;3.22;100.00
81545;BME280;70990;50.618;7.346;2024-02-28T00:55:12;98487.94;;;3.31;100.00
81545;BME280;70990;50.618;7.346;2024-02-28T00:57:38;98485.56;;;3.29;100.00
81545;BME280;70990;50.618;7.346;2024-02-28T01:00:05;98487.06;;;3.27;100.00
81545;BME280;70990;50.618;7.346;2024-02-28T01:02:32;98489.50;;;3.32;100.00
81545;BME280;70990;50.618;7.346;2024-02-28T01:04:58;98496.97;;;3.15;100.00
81545;BME280;70990;50.618;7.346;2024-02-28T01:07:25;98496.16;;;3.31;100.00
81545;BME280;70990;50.618;7.346;2024-02-28T01:09:52;98500.44;;;3.32;100.00
81545;BME280;70990;50.618;7.346;2024-02-28T01:12:19;98515.88;;;3.24;100.00
81545;BME280;70990;50.618;7.346;2024-02-28T01:14:45;98514.44;;;3.11;100.00
81545;BME280;70990;50.618;7.346;2024-02-28T01:17:14;98500.63;;;3.04;100.00
81545;BME280;70990;50.618;7.346;2024-02-28T01:19:41;98504.03;;;3.16;100.00
81545;BME280;70990;50.618;7.346;2024-02-28T01:22:07;98516.53;;;3.17;100.00
81545;BME280;70990;50.618;7.346;2024-02-28T01:24:34;98506.63;;;3.29;100.00
81545;BME280;70990;50.618;7.346;2024-02-28T01:27:01;98521.25;;;2.86;100.00
81545;BME280;70990;50.618;7.346;2024-02-28T01:29:27;98517.50;;;3.09;100.00
81545;BME280;70990;50.618;7.346;2024-02-28T01:31:54;98516.72;;;3.09;100.00
81545;BME280;70990;50.618;7.346;2024-02-28T01:34:20;98519.25;;;3.17;100.00
81545;BME280;70990;50.618;7.346;2024-02-28T01:36:47;98521.09;;;3.13;100.00
81545;BME280;70990;50.618;7.346;2024-02-28T01:39:14;98520.63;;;2.92;100.00
81545;BME280;70990;50.618;7.346;2024-02-28T01:41:41;98514.72;;;2.90;100.00
81545;BME280;70990;50.618;7.346;2024-02-28T01:44:07;98523.72;;;2.75;100.00
81545;BME280;70990;50.618;7.346;2024-02-28T01:46:34;98518.09;;;2.83;100.00
81545;BME280;70990;50.618;7.346;2024-02-28T01:49:01;98514.22;;;2.69;100.00
81545;BME280;70990;50.618;7.346;2024-02-28T01:51:27;98518.09;;;2.83;100.00
81545;BME280;70990;50.618;7.346;2024-02-28T01:53:54;98523.38;;;2.76;100.00
81545;BME280;70990;50.618;7.346;2024-02-28T01:56:23;98509.38;;;2.78;100.00
81545;BME280;70990;50.618;7.346;2024-02-28T01:58:50;98521.72;;;2.72;100.00
81545;BME280;70990;50.618;7.346;2024-02-28T02:01:17;98511.66;;;2.76;100.00
81545;BME280;70990;50.618;7.346;2024-02-28T02:03:49;98511.66;;;2.76;100.00
81545;BME280;70990;50.618;7.346;2024-02-28T02:06:16;98518.53;;;2.70;100.00
81545;BME280;70990;50.618;7.346;2024-02-28T02:08:43;98517.84;;;2.73;100.00
81545;BME280;70990;50.618;7.346;2024-02-28T02:11:09;98510.00;;;2.87;100.00
81545;BME280;70990;50.618;7.346;2024-02-28T02:13:49;98511.34;;;2.46;100.00
81545;BME280;70990;50.618;7.346;2024-02-28T02:16:15;98507.28;;;2.71;100.00
81545;BME280;70990;50.618;7.346;2024-02-28T02:18:42;98509.38;;;2.78;100.00
81545;BME280;70990;50.618;7.346;2024-02-28T02:21:11;98510.59;;;2.96;100.00
81545;BME280;70990;50.618;7.346;2024-02-28T02:23:39;98515.75;;;3.01;100.00
81545;BME280;70990;50.618;7.346;2024-02-28T02:26:05;98510.88;;;2.75;100.00
81545;BME280;70990;50.618;7.346;2024-02-28T02:28:31;98506.41;;;2.52;100.00
81545;BME280;70990;50.618;7.346;2024-02-28T02:30:58;98503.00;;;2.55;100.00
81545;BME280;70990;50.618;7.346;2024-02-28T02:33:25;98504.91;;;2.38;100.00
81545;BME280;70990;50.618;7.346;2024-02-28T02:35:54;98504.47;;;2.52;100.00
81545;BME280;70990;50.618;7.346;2024-02-28T02:38:21;98520.84;;;2.68;100.00
81545;BME280;70990;50.618;7.346;2024-02-28T02:40:49;98512.38;;;2.73;100.00
81545;BME280;70990;50.618;7.346;2024-02-28T02:43:16;98507.63;;;2.70;100.00
81545;BME280;70990;50.618;7.346;2024-02-28T02:45:42;98510.06;;;2.75;100.00
81545;BME280;70990;50.618;7.346;2024-02-28T02:48:09;98503.31;;;2.69;100.00
81545;BME280;70990;50.618;7.346;2024-02-28T02:50:36;98499.03;;;2.68;100.00
81545;BME280;70990;50.618;7.346;2024-02-28T02:53:03;98500.69;;;2.57;100.00
81545;BME280;70990;50.618;7.346;2024-02-28T02:55:30;98506.22;;;2.76;100.00
81545;BME280;70990;50.618;7.346;2024-02-28T02:57:56;98499.78;;;2.84;100.00
81545;BME280;70990;50.618;7.346;2024-02-28T03:00:23;98490.91;;;2.87;100.00
81545;BME280;70990;50.618;7.346;2024-02-28T03:02:50;98494.38;;;2.88;100.00
81545;BME280;70990;50.618;7.346;2024-02-28T03:05:16;98505.41;;;2.75;100.00
81545;BME280;70990;50.618;7.346;2024-02-28T03:07:43;98499.72;;;2.65;100.00
81545;BME280;70990;50.618;7.346;2024-02-28T03:10:13;98493.63;;;2.71;100.00
81545;BME280;70990;50.618;7.346;2024-02-28T03:12:39;98498.28;;;2.87;100.00
81545;BME280;70990;50.618;7.346;2024-02-28T03:15:06;98499.34;;;2.82;100.00
81545;BME280;70990;50.618;7.346;2024-02-28T03:17:32;98517.03;;;2.72;100.00
81545;BME280;70990;50.618;7.346;2024-02-28T03:19:59;98522.78;;;2.67;100.00
81545;BME280;70990;50.618;7.346;2024-02-28T03:22:28;98526.81;;;2.73;100.00
81545;BME280;70990;50.618;7.346;2024-02-28T03:24:55;98525.59;;;2.39;100.00
81545;BME280;70990;50.618;7.346;2024-02-28T03:27:21;98505.69;;;2.70;100.00
81545;BME280;70990;50.618;7.346;2024-02-28T03:29:48;98520.13;;;2.71;100.00
81545;BME280;70990;50.618;7.346;2024-02-28T03:32:14;98520.47;;;2.69;100.00
81545;BME280;70990;50.618;7.346;2024-02-28T03:34:41;98526.03;;;2.73;100.00
81545;BME280;70990;50.618;7.346;2024-02-28T03:37:07;98529.81;;;2.53;100.00
81545;BME280;70990;50.618;7.346;2024-02-28T03:39:33;98528.66;;;2.69;100.00
81545;BME280;70990;50.618;7.346;2024-02-28T03:42:00;98521.72;;;2.72;100.00
81545;BME280;70990;50.618;7.346;2024-02-28T03:44:27;98526.38;;;2.87;100.00
81545;BME280;70990;50.618;7.346;2024-02-28T03:46:53;98530.16;;;2.67;100.00
81545;BME280;70990;50.618;7.346;2024-02-28T03:49:20;98543.00;;;2.82;100.00
81545;BME280;70990;50.618;7.346;2024-02-28T03:51:46;98544.22;;;2.69;100.00
81545;BME280;70990;50.618;7.346;2024-02-28T03:54:13;98537.63;;;2.70;100.00
81545;BME280;70990;50.618;7.346;2024-02-28T03:56:39;98538.25;;;2.79;100.00
81545;BME280;70990;50.618;7.346;2024-02-28T03:59:06;98537.69;;;2.89;100.00
81545;BME280;70990;50.618;7.346;2024-02-28T04:01:32;98547.41;;;2.71;100.00
81545;BME280;70990;50.618;7.346;2024-02-28T04:03:59;98550.41;;;2.66;100.00
81545;BME280;70990;50.618;7.346;2024-02-28T04:06:26;98553.56;;;2.68;100.00
81545;BME280;70990;50.618;7.346;2024-02-28T04:08:52;98554.09;;;2.58;100.00
81545;BME280;70990;50.618;7.346;2024-02-28T04:11:19;98555.00;;;2.62;100.00
81545;BME280;70990;50.618;7.346;2024-02-28T04:13:46;98542.56;;;2.49;100.00
81545;BME280;70990;50.618;7.346;2024-02-28T04:16:13;98561.97;;;2.31;100.00
81545;BME280;70990;50.618;7.346;2024-02-28T04:18:42;98562.91;;;2.67;100.00
81545;BME280;70990;50.618;7.346;2024-02-28T04:21:08;98560.78;;;2.76;100.00
81545;BME280;70990;50.618;7.346;2024-02-28T04:23:35;98560.53;;;2.81;100.00
81545;BME280;70990;50.618;7.346;2024-02-28T04:26:01;98565.00;;;2.89;100.00
81545;BME280;70990;50.618;7.346;2024-02-28T04:28:28;98568.00;;;2.84;100.00
81545;BME280;70990;50.618;7.346;2024-02-28T04:30:55;98565.88;;;2.77;100.00
81545;BME280;70990;50.618;7.346;2024-02-28T04:33:25;98573.63;;;2.60;100.00
81545;BME280;70990;50.618;7.346;2024-02-28T04:35:51;98576.34;;;2.75;100.00
81545;BME280;70990;50.618;7.346;2024-02-28T04:38:18;98577.75;;;2.69;100.00
81545;BME280;70990;50.618;7.346;2024-02-28T04:40:45;98574.31;;;2.57;100.00
81545;BME280;70990;50.618;7.346;2024-02-28T04:43:11;98575.91;;;2.58;100.00
81545;BME280;70990;50.618;7.346;2024-02-28T04:45:38;98567.47;;;2.63;100.00
81545;BME280;70990;50.618;7.346;2024-02-28T04:48:05;98568.00;;;2.53;100.00
81545;BME280;70990;50.618;7.346;2024-02-28T04:50:31;98571.84;;;2.52;100.00
81545;BME280;70990;50.618;7.346;2024-02-28T04:52:58;98580.13;;;2.71;100.00
81545;BME280;70990;50.618;7.346;2024-02-28T04:55:24;98586.75;;;2.86;100.00
81545;BME280;70990;50.618;7.346;2024-02-28T04:57:51;98585.59;;;2.71;100.00
81545;BME280;70990;50.618;7.346;2024-02-28T05:00:18;98585.59;;;2.71;100.00
81545;BME280;70990;50.618;7.346;2024-02-28T05:02:44;98594.22;;;2.73;100.00
81545;BME280;70990;50.618;7.346;2024-02-28T05:05:11;98597.03;;;2.61;100.00
81545;BME280;70990;50.618;7.346;2024-02-28T05:07:37;98603.47;;;2.68;100.00
81545;BME280;70990;50.618;7.346;2024-02-28T05:10:04;98612.16;;;2.42;100.00
81545;BME280;70990;50.618;7.346;2024-02-28T05:12:31;98603.06;;;2.38;100.00
81545;BME280;70990;50.618;7.346;2024-02-28T05:14:57;98608.97;;;2.40;100.00
81545;BME280;70990;50.618;7.346;2024-02-28T05:17:24;98612.84;;;2.39;100.00
81545;BME280;70990;50.618;7.346;2024-02-28T05:19:50;98616.50;;;2.31;100.00
81545;BME280;70990;50.618;7.346;2024-02-28T05:22:17;98619.84;;;2.25;100.00
81545;BME280;70990;50.618;7.346;2024-02-28T05:24:46;98609.72;;;2.25;100.00
81545;BME280;70990;50.618;7.346;2024-02-28T05:27:14;98607.41;;;2.55;100.00
81545;BME280;70990;50.618;7.346;2024-02-28T05:29:41;98616.63;;;2.51;100.00
81545;BME280;70990;50.618;7.346;2024-02-28T05:32:08;98614.34;;;2.53;100.00
81545;BME280;70990;50.618;7.346;2024-02-28T05:34:35;98617.59;;;2.42;100.00
81545;BME280;70990;50.618;7.346;2024-02-28T05:37:01;98629.56;;;2.54;100.00
81545;BME280;70990;50.618;7.346;2024-02-28T05:39:28;98621.84;;;2.56;100.00
81545;BME280;70990;50.618;7.346;2024-02-28T05:41:55;98628.06;;;2.56;100.00
81545;BME280;70990;50.618;7.346;2024-02-28T05:44:21;98633.91;;;2.55;100.00
81545;BME280;70990;50.618;7.346;2024-02-28T05:46:48;98634.44;;;2.60;100.00
81545;BME280;70990;50.618;7.346;2024-02-28T05:49:14;98632.03;;;2.59;100.00
81545;BME280;70990;50.618;7.346;2024-02-28T05:51:41;98633.72;;;2.63;100.00
81545;BME280;70990;50.618;7.346;2024-02-28T05:54:07;98634.50;;;2.64;100.00
81545;BME280;70990;50.618;7.346;2024-02-28T05:56:34;98636.63;;;2.55;100.00
81545;BME280;70990;50.618;7.346;2024-02-28T05:59:00;98640.50;;;2.69;100.00
81545;BME280;70990;50.618;7.346;2024-02-28T06:01:27;98629.78;;;2.61;100.00
81545;BME280;70990;50.618;7.346;2024-02-28T06:03:53;98640.50;;;2.69;100.00
81545;BME280;70990;50.618;7.346;2024-02-28T06:06:20;98646.81;;;2.58;100.00
81545;BME280;70990;50.618;7.346;2024-02-28T06:08:47;98650.44;;;2.62;100.00
81545;BME280;70990;50.618;7.346;2024-02-28T06:11:13;98654.22;;;2.57;100.00
81545;BME280;70990;50.618;7.346;2024-02-28T06:13:41;98652.81;;;2.63;100.00
81545;BME280;70990;50.618;7.346;2024-02-28T06:16:07;98661.09;;;2.67;100.00
81545;BME280;70990;50.618;7.346;2024-02-28T06:18:34;98650.28;;;2.70;100.00
81545;BME280;70990;50.618;7.346;2024-02-28T06:21:01;98658.72;;;2.65;100.00
81545;BME280;70990;50.618;7.346;2024-02-28T06:23:28;98666.22;;;2.68;100.00
81545;BME280;70990;50.618;7.346;2024-02-28T06:25:56;98662.31;;;2.69;100.00
81545;BME280;70990;50.618;7.346;2024-02-28T06:28:23;98669.72;;;2.69;100.00
81545;BME280;70990;50.618;7.346;2024-02-28T06:30:50;98673.84;;;2.63;100.00
81545;BME280;70990;50.618;7.346;2024-02-28T06:33:16;98683.25;;;2.50;100.00
81545;BME280;70990;50.618;7.346;2024-02-28T06:35:43;98676.56;;;2.63;100.00
81545;BME280;70990;50.618;7.346;2024-02-28T06:38:10;98678.13;;;2.48;100.00
81545;BME280;70990;50.618;7.346;2024-02-28T06:40:40;98682.88;;;2.51;100.00
81545;BME280;70990;50.618;7.346;2024-02-28T06:43:06;98684.72;;;2.47;100.00
81545;BME280;70990;50.618;7.346;2024-02-28T06:45:33;98689.47;;;2.22;100.00
81545;BME280;70990;50.618;7.346;2024-02-28T06:48:00;98693.03;;;2.38;100.00
81545;BME280;70990;50.618;7.346;2024-02-28T06:50:26;98687.00;;;2.17;100.00
81545;BME280;70990;50.618;7.346;2024-02-28T06:52:53;98699.88;;;2.32;100.00
81545;BME280;70990;50.618;7.346;2024-02-28T06:55:19;98693.88;;;1.99;100.00
81545;BME280;70990;50.618;7.346;2024-02-28T06:57:46;98702.09;;;2.15;100.00
81545;BME280;70990;50.618;7.346;2024-02-28T07:00:13;98700.09;;;2.12;100.00
81545;BME280;70990;50.618;7.346;2024-02-28T07:02:40;98709.75;;;1.97;100.00
81545;BME280;70990;50.618;7.346;2024-02-28T07:05:06;98709.16;;;2.16;100.00
81545;BME280;70990;50.618;7.346;2024-02-28T07:07:33;98711.69;;;1.96;100.00
81545;BME280;70990;50.618;7.346;2024-02-28T07:10:05;98707.38;;;1.95;100.00
81545;BME280;70990;50.618;7.346;2024-02-28T07:12:31;98700.66;;;2.05;100.00
81545;BME280;70990;50.618;7.346;2024-02-28T07:15:01;98703.94;;;2.11;100.00
81545;BME280;70990;50.618;7.346;2024-02-28T07:17:28;98705.75;;;2.07;100.00
81545;BME280;70990;50.618;7.346;2024-02-28T07:19:54;98710.50;;;2.22;100.00
81545;BME280;70990;50.618;7.346;2024-02-28T07:22:21;98703.75;;;2.31;100.00
81545;BME280;70990;50.618;7.346;2024-02-28T07:24:48;98705.03;;;2.22;100.00
81545;BME280;70990;50.618;7.346;2024-02-28T07:27:14;98707.00;;;2.09;100.00
81545;BME280;70990;50.618;7.346;2024-02-28T07:29:41;98710.44;;;2.34;100.00
81545;BME280;70990;50.618;7.346;2024-02-28T07:32:08;98693.16;;;2.42;100.00
81545;BME280;70990;50.618;7.346;2024-02-28T07:34:34;98714.97;;;2.42;100.00
81545;BME280;70990;50.618;7.346;2024-02-28T07:37:01;98715.56;;;2.35;100.00
81545;BME280;70990;50.618;7.346;2024-02-28T07:39:28;98719.16;;;2.39;100.00
81545;BME280;70990;50.618;7.346;2024-02-28T07:41:54;98710.94;;;2.24;100.00
81545;BME280;70990;50.618;7.346;2024-02-28T07:44:22;98714.66;;;2.31;100.00
81545;BME280;70990;50.618;7.346;2024-02-28T07:46:49;98710.13;;;1.83;100.00
81545;BME280;70990;50.618;7.346;2024-02-28T07:49:15;98724.56;;;2.24;100.00
81545;BME280;70990;50.618;7.346;2024-02-28T07:51:42;98727.34;;;2.12;100.00
81545;BME280;70990;50.618;7.346;2024-02-28T07:54:08;98741.22;;;2.34;100.00
81545;BME280;70990;50.618;7.346;2024-02-28T07:56:35;98744.56;;;2.56;100.00
81545;BME280;70990;50.618;7.346;2024-02-28T07:59:01;98745.31;;;2.68;100.00
81545;BME280;70990;50.618;7.346;2024-02-28T08:01:28;98743.66;;;2.52;100.00
81545;BME280;70990;50.618;7.346;2024-02-28T08:03:55;98745.81;;;2.30;100.00
81545;BME280;70990;50.618;7.346;2024-02-28T08:06:21;98758.44;;;2.51;100.00
81545;BME280;70990;50.618;7.346;2024-02-28T08:08:48;98749.28;;;2.43;100.00
81545;BME280;70990;50.618;7.346;2024-02-28T08:11:14;98754.41;;;1.92;100.00
81545;BME280;70990;50.618;7.346;2024-02-28T08:13:41;98755.53;;;1.91;100.00
81545;BME280;70990;50.618;7.346;2024-02-28T08:16:07;98750.75;;;1.88;100.00
81545;BME280;70990;50.618;7.346;2024-02-28T08:18:34;98755.63;;;1.83;100.00
81545;BME280;70990;50.618;7.346;2024-02-28T08:21:00;98753.31;;;2.21;100.00
81545;BME280;70990;50.618;7.346;2024-02-28T08:23:27;98754.81;;;2.47;100.00
81545;BME280;70990;50.618;7.346;2024-02-28T08:25:54;98749.38;;;2.47;100.00
81545;BME280;70990;50.618;7.346;2024-02-28T08:28:20;98750.84;;;2.44;100.00
81545;BME280;70990;50.618;7.346;2024-02-28T08:30:48;98755.72;;;2.11;100.00
81545;BME280;70990;50.618;7.346;2024-02-28T08:33:15;98758.91;;;2.53;100.00
81545;BME280;70990;50.618;7.346;2024-02-28T08:35:44;98758.25;;;2.99;100.00
81545;BME280;70990;50.618;7.346;2024-02-28T08:38:11;98746.50;;;2.83;100.00
81545;BME280;70990;50.618;7.346;2024-02-28T08:40:37;98756.00;;;2.89;100.00
81545;BME280;70990;50.618;7.346;2024-02-28T08:43:04;98755.31;;;2.92;99.17
81545;BME280;70990;50.618;7.346;2024-02-28T08:45:30;98765.88;;;2.38;99.77
81545;BME280;70990;50.618;7.346;2024-02-28T08:47:59;98765.63;;;2.71;100.00
81545;BME280;70990;50.618;7.346;2024-02-28T08:50:27;98775.66;;;2.67;100.00
81545;BME280;70990;50.618;7.346;2024-02-28T08:52:53;98752.00;;;2.99;100.00
81545;BME280;70990;50.618;7.346;2024-02-28T08:55:20;98770.84;;;3.19;99.72
81545;BME280;70990;50.618;7.346;2024-02-28T08:57:47;98775.44;;;3.15;99.06
81545;BME280;70990;50.618;7.346;2024-02-28T09:00:13;98778.72;;;3.37;97.72
81545;BME280;70990;50.618;7.346;2024-02-28T09:02:41;98779.94;;;3.39;96.93
81545;BME280;70990;50.618;7.346;2024-02-28T09:05:07;98780.19;;;3.81;97.73
81545;BME280;70990;50.618;7.346;2024-02-28T09:07:34;98784.25;;;3.72;95.82
81545;BME280;70990;50.618;7.346;2024-02-28T09:10:04;98785.66;;;3.50;94.25
81545;BME280;70990;50.618;7.346;2024-02-28T09:12:30;98780.38;;;3.25;94.13
81545;BME280;70990;50.618;7.346;2024-02-28T09:14:57;98783.97;;;3.14;97.27
81545;BME280;70990;50.618;7.346;2024-02-28T09:17:24;98793.88;;;3.34;95.34
81545;BME280;70990;50.618;7.346;2024-02-28T09:19:52;98788.06;;;2.92;95.84
81545;BME280;70990;50.618;7.346;2024-02-28T09:22:18;98785.38;;;3.08;96.67
81545;BME280;70990;50.618;7.346;2024-02-28T09:24:45;98788.31;;;3.31;95.33
81545;BME280;70990;50.618;7.346;2024-02-28T09:27:11;98785.31;;;3.36;93.92
81545;BME280;70990;50.618;7.346;2024-02-28T09:29:39;98766.56;;;3.18;94.75
81545;BME280;70990;50.618;7.346;2024-02-28T09:32:06;98775.88;;;2.74;97.89
81545;BME280;70990;50.618;7.346;2024-02-28T09:34:33;98776.91;;;3.13;95.46
81545;BME280;70990;50.618;7.346;2024-02-28T09:36:59;98784.56;;;3.07;96.96
81545;BME280;70990;50.618;7.346;2024-02-28T09:39:26;98785.72;;;3.06;99.05
81545;BME280;70990;50.618;7.346;2024-02-28T09:41:52;98786.47;;;3.66;97.91
81545;BME280;70990;50.618;7.346;2024-02-28T09:44:19;98791.63;;;4.18;96.30
81545;BME280;70990;50.618;7.346;2024-02-28T09:46:51;98791.41;;;4.27;95.63
81545;BME280;70990;50.618;7.346;2024-02-28T09:49:18;98791.81;;;4.83;95.79
81545;BME280;70990;50.618;7.346;2024-02-28T09:51:48;98803.91;;;4.82;92.06
81545;BME280;70990;50.618;7.346;2024-02-28T09:54:18;98803.00;;;4.74;90.74
81545;BME280;70990;50.618;7.346;2024-02-28T09:56:51;98802.25;;;4.97;92.53
81545;BME280;70990;50.618;7.346;2024-02-28T09:59:18;98811.53;;;5.31;90.55
81545;BME280;70990;50.618;7.346;2024-02-28T10:01:51;98810.13;;;5.40;87.89
81545;BME280;70990;50.618;7.346;2024-02-28T10:04:20;98809.56;;;5.31;87.73
81545;BME280;70990;50.618;7.346;2024-02-28T10:06:46;98816.38;;;5.18;86.43
81545;BME280;70990;50.618;7.346;2024-02-28T10:09:13;98809.88;;;4.87;88.43
81545;BME280;70990;50.618;7.346;2024-02-28T10:11:41;98818.34;;;4.79;88.23
81545;BME280;70990;50.618;7.346;2024-02-28T10:14:17;98813.72;;;5.02;85.51
81545;BME280;70990;50.618;7.346;2024-02-28T10:16:44;98821.00;;;4.95;88.61
81545;BME280;70990;50.618;7.346;2024-02-28T10:19:11;98821.38;;;5.35;86.60
81545;BME280;70990;50.618;7.346;2024-02-28T10:21:37;98825.09;;;5.46;86.67
81545;BME280;70990;50.618;7.346;2024-02-28T10:24:04;98819.88;;;5.60;86.07
81545;BME280;70990;50.618;7.346;2024-02-28T10:26:31;98823.13;;;5.89;87.45
81545;BME280;70990;50.618;7.346;2024-02-28T10:28:57;98813.34;;;6.14;87.40
81545;BME280;70990;50.618;7.346;2024-02-28T10:31:24;98813.53;;;5.56;85.81
81545;BME280;70990;50.618;7.346;2024-02-28T10:33:50;98808.47;;;5.81;86.51
81545;BME280;70990;50.618;7.346;2024-02-28T10:36:17;98809.72;;;6.33;87.78
81545;BME280;70990;50.618;7.346;2024-02-28T10:38:44;98806.97;;;6.63;86.78
81545;BME280;70990;50.618;7.346;2024-02-28T10:41:11;98806.81;;;6.78;85.57
81545;BME280;70990;50.618;7.346;2024-02-28T10:43:40;98803.97;;;6.41;83.75
81545;BME280;70990;50.618;7.346;2024-02-28T10:46:07;98802.81;;;6.16;83.77
81545;BME280;70990;50.618;7.346;2024-02-28T10:48:54;98793.66;;;6.35;85.92
81545;BME280;70990;50.618;7.346;2024-02-28T10:51:23;98795.44;;;6.80;84.85
81545;BME280;70990;50.618;7.346;2024-02-28T10:54:16;98781.00;;;6.86;83.75
81545;BME280;70990;50.618;7.346;2024-02-28T10:56:42;98778.47;;;7.04;83.91
81545;BME280;70990;50.618;7.346;2024-02-28T10:59:11;98777.25;;;6.68;82.29
81545;BME280;70990;50.618;7.346;2024-02-28T11:01:43;98776.66;;;7.19;82.15
81545;BME280;70990;50.618;7.346;2024-02-28T11:04:10;98789.34;;;6.34;83.10
81545;BME280;70990;50.618;7.346;2024-02-28T11:06:52;98781.41;;;7.22;83.39
81545;BME280;70990;50.618;7.346;2024-02-28T11:09:25;98783.63;;;6.46;83.08
81545;BME280;70990;50.618;7.346;2024-02-28T11:11:54;98778.53;;;6.78;83.95
81545;BME280;70990;50.618;7.346;2024-02-28T11:14:21;98762.31;;;6.99;81.67
81545;BME280;70990;50.618;7.346;2024-02-28T11:16:59;98763.44;;;7.32;85.08
81545;BME280;70990;50.618;7.346;2024-02-28T11:19:28;98771.31;;;6.96;79.22
81545;BME280;70990;50.618;7.346;2024-02-28T11:21:59;98765.50;;;7.86;80.51
81545;BME280;70990;50.618;7.346;2024-02-28T11:24:31;98755.28;;;7.90;78.85
81545;BME280;70990;50.618;7.346;2024-02-28T11:26:59;98756.63;;;8.10;77.08
81545;BME280;70990;50.618;7.346;2024-02-28T11:29:27;98757.97;;;8.37;76.65
81545;BME280;70990;50.618;7.346;2024-02-28T11:31:55;98752.22;;;8.60;77.15
81545;BME280;70990;50.618;7.346;2024-02-28T11:34:21;98751.44;;;8.63;76.73
81545;BME280;70990;50.618;7.346;2024-02-28T11:36:49;98756.63;;;8.14;73.65
81545;BME280;70990;50.618;7.346;2024-02-28T11:39:17;98751.53;;;8.88;76.38
81545;BME280;70990;50.618;7.346;2024-02-28T11:41:46;98750.75;;;8.95;75.80
81545;BME280;70990;50.618;7.346;2024-02-28T11:44:14;98750.38;;;9.00;74.99
81545;BME280;70990;50.618;7.346;2024-02-28T11:46:48;98738.59;;;9.03;72.15
81545;BME280;70990;50.618;7.346;2024-02-28T11:49:15;98748.75;;;8.77;72.24
81545;BME280;70990;50.618;7.346;2024-02-28T11:51:43;98747.72;;;9.81;74.02
81545;BME280;70990;50.618;7.346;2024-02-28T11:54:11;98738.22;;;9.08;67.66
81545;BME280;70990;50.618;7.346;2024-02-28T11:56:39;98732.38;;;9.55;70.14
81545;BME280;70990;50.618;7.346;2024-02-28T11:59:06;98729.19;;;9.50;71.92
81545;BME280;70990;50.618;7.346;2024-02-28T12:01:37;98730.00;;;9.50;71.52
81545;BME280;70990;50.618;7.346;2024-02-28T12:04:05;98724.09;;;9.62;69.66
81545;BME280;70990;50.618;7.346;2024-02-28T12:06:33;98719.38;;;9.59;71.50
81545;BME280;70990;50.618;7.346;2024-02-28T12:09:00;98719.75;;;9.79;72.62
81545;BME280;70990;50.618;7.346;2024-02-28T12:11:29;98715.00;;;9.94;69.88
81545;BME280;70990;50.618;7.346;2024-02-28T12:13:56;98725.22;;;10.07;71.34
81545;BME280;70990;50.618;7.346;2024-02-28T12:16:24;98721.31;;;10.01;69.39
81545;BME280;70990;50.618;7.346;2024-02-28T12:18:51;98719.72;;;10.18;69.92
81545;BME280;70990;50.618;7.346;2024-02-28T12:21:19;98720.41;;;10.58;67.17
81545;BME280;70990;50.618;7.346;2024-02-28T12:23:46;98716.47;;;10.51;66.01
81545;BME280;70990;50.618;7.346;2024-02-28T12:26:14;98706.44;;;10.89;67.07
81545;BME280;70990;50.618;7.346;2024-02-28T12:28:40;98697.84;;;10.70;66.15
81545;BME280;70990;50.618;7.346;2024-02-28T12:31:07;98697.06;;;10.73;66.45
81545;BME280;70990;50.618;7.346;2024-02-28T12:33:35;98700.28;;;10.54;67.12
81545;BME280;70990;50.618;7.346;2024-02-28T12:36:02;98697.31;;;10.96;66.69
81545;BME280;70990;50.618;7.346;2024-02-28T12:38:28;98698.00;;;11.14;64.04
81545;BME280;70990;50.618;7.346;2024-02-28T12:40:55;98694.59;;;10.89;64.74
81545;BME280;70990;50.618;7.346;2024-02-28T12:43:22;98692.84;;;11.16;67.12
81545;BME280;70990;50.618;7.346;2024-02-28T12:45:48;98694.03;;;10.32;65.35
81545;BME280;70990;50.618;7.346;2024-02-28T12:48:15;98681.47;;;11.59;64.73
81545;BME280;70990;50.618;7.346;2024-02-28T12:50:41;98683.91;;;11.50;62.28
81545;BME280;70990;50.618;7.346;2024-02-28T12:53:08;98689.53;;;10.77;61.34
81545;BME280;70990;50.618;7.346;2024-02-28T12:55:35;98693.66;;;10.33;60.92
81545;BME280;70990;50.618;7.346;2024-02-28T12:58:01;98679.59;;;11.45;63.13
81545;BME280;70990;50.618;7.346;2024-02-28T13:00:28;98679.75;;;12.17;61.52
81545;BME280;70990;50.618;7.346;2024-02-28T13:02:55;98683.56;;;11.92;60.79